This is the latest recevied weather packets stored in our database for station/object WA5KWK. If no packets are shown the sender has not sent any weather packets the latest 10 day(s).
| Time | Temp. | Humidity | Pressure | Rain* | Wind** | Luminosity | Snow |
|---|---|---|---|---|---|---|---|
| 1777463404 | 7.78° C | 76% | 1018.1 hPa | 0 mm | - | 0 W/m² | - |
| 1777462504 | 7.78° C | 74% | 1018.1 hPa | 0 mm | - | 0 W/m² | - |
| 1777458903 | 9.44° C | 71% | 1018.1 hPa | 0 mm | - | 0 W/m² | - |
| 1777458304 | 9.44° C | 71% | 1018.1 hPa | 0 mm | - | 0 W/m² | - |
| 1777455303 | 10° C | 72% | 1018.2 hPa | 0 mm | - | 0 W/m² | - |
| 1777454703 | 10° C | 70% | 1018.2 hPa | 0 mm | - | 0 W/m² | - |
| 1777450204 | 10.56° C | 68% | 1018.2 hPa | 0 mm | - | 0 W/m² | - |
| 1777448103 | 10.56° C | 68% | 1018 hPa | 0 mm | - | 0 W/m² | - |
| 1777446304 | 10.56° C | 67% | 1017.8 hPa | 0 mm | - | 0 W/m² | - |
| 1777445719 | 10.56° C | 68% | 1017.8 hPa | 0 mm | - | 0 W/m² | - |
| 1777443604 | 10.56° C | 69% | 1017.9 hPa | 0 mm | - | 0 W/m² | - |
| 1777440904 | 11.67° C | 64% | 1018 hPa | 0 mm | - | 0 W/m² | - |
| 1777440305 | 11.67° C | 63% | 1018 hPa | 0 mm | - | 0 W/m² | - |
| 1777440004 | 11.67° C | 63% | 1017.9 hPa | 0 mm | - | 0 W/m² | - |
| 1777437304 | 12.78° C | 59% | 1018.2 hPa | 0 mm | - | 0 W/m² | - |
| 1777436704 | 12.78° C | 58% | 1018.3 hPa | 0 mm | - | 0 W/m² | - |
| 1777434903 | 13.33° C | 58% | 1018.2 hPa | 0 mm | - | 0 W/m² | - |
| 1777433704 | 12.78° C | 60% | 1017.9 hPa | 0 mm | - | 0 W/m² | - |
| 1777433104 | 13.33° C | 59% | 1017.8 hPa | 0 mm | - | 0 W/m² | - |
| 1777432804 | 13.33° C | 59% | 1017.8 hPa | 0 mm | - | 0 W/m² | - |
| 1777430404 | 15° C | 57% | 1017.4 hPa | 0 mm | - | 9 W/m² | - |
| 1777430104 | 15.56° C | 54% | 1017.5 hPa | 0 mm | - | 12 W/m² | - |
| 1777429504 | 16.67° C | 53% | 1017.4 hPa | 0 mm | - | 19 W/m² | - |
| 1777425005 | 18.33° C | 54% | 1017.4 hPa | 0 mm | - | 283 W/m² | - |
| 1777420505 | 18.33° C | 61% | 1017.4 hPa | 0 mm | - | 721 W/m² | - |
* Rain latest hour (hover to see other rain measurements)
** Current wind speed in m/s (hover to see current wind gust speed)